Time;durP1;ratioP1;P1;durP2;ratioP2;P2;SDS_P1;SDS_P2;PMS_P1;PMS_P2;Temp;Humidity;BMP_temperature;BMP_pressure;BME280_temperature;BME280_humidity;BME280_pressure;Samples;Min_cycle;Max_cycle;Signal;HPM_P1;HPM_P2
2022/01/01 00:00:47;;;;;;;50.23;28.60;;;;;;;;;;5139673;27;20300;-77
2022/01/01 00:03:15;;;;;;;31.67;20.07;;;;;;;;;;5139348;27;20214;-76
2022/01/01 00:05:44;;;;;;;20.73;14.90;;;;;;;;;;5139446;27;20212;-76
2022/01/01 00:08:15;;;;;;;27.77;18.57;;;;;;;;;;5139632;27;20210;-76
2022/01/01 00:10:43;;;;;;;23.30;16.97;;;;;;;;;;5139630;27;20204;-76
2022/01/01 00:13:15;;;;;;;22.83;16.20;;;;;;;;;;5139026;27;20622;-76
2022/01/01 00:15:43;;;;;;;21.90;15.93;;;;;;;;;;5139188;27;20566;-77
2022/01/01 00:18:11;;;;;;;19.93;15.87;;;;;;;;;;5139535;27;20210;-76
2022/01/01 00:20:39;;;;;;;22.40;15.77;;;;;;;;;;5139619;27;20212;-77
2022/01/01 00:23:07;;;;;;;24.33;17.27;;;;;;;;;;5139352;27;20210;-77
2022/01/01 00:25:36;;;;;;;24.73;19.60;;;;;;;;;;5139233;27;20215;-77
2022/01/01 00:28:07;;;;;;;32.57;24.13;;;;;;;;;;5139222;27;20242;-77
2022/01/01 00:30:34;;;;;;;28.93;21.50;;;;;;;;;;5139097;27;20215;-77
2022/01/01 00:33:04;;;;;;;29.67;20.37;;;;;;;;;;5139188;27;20207;-77
2022/01/01 00:35:32;;;;;;;31.87;21.40;;;;;;;;;;5139184;27;20210;-77
2022/01/01 00:38:00;;;;;;;29.33;20.00;;;;;;;;;;5138789;27;20616;-77
2022/01/01 00:40:28;;;;;;;31.60;19.20;;;;;;;;;;5138826;27;20643;-77
2022/01/01 00:42:57;;;;;;;39.07;20.80;;;;;;;;;;5139145;27;20204;-77
2022/01/01 00:45:25;;;;;;;34.73;19.70;;;;;;;;;;5139112;27;20208;-77
2022/01/01 00:47:53;;;;;;;31.70;19.53;;;;;;;;;;5138527;27;20235;-77
2022/01/01 00:50:21;;;;;;;34.27;19.97;;;;;;;;;;5138921;27;20296;-77
2022/01/01 00:52:51;;;;;;;35.03;20.50;;;;;;;;;;5138799;27;20607;-77
2022/01/01 00:55:19;;;;;;;38.57;21.70;;;;;;;;;;5142072;27;20204;-77
2022/01/01 00:57:48;;;;;;;45.73;24.83;;;;;;;;;;5139045;27;20729;-77
2022/01/01 01:00:17;;;;;;;50.07;26.53;;;;;;;;;;5138835;27;20212;-76
2022/01/01 01:02:45;;;;;;;49.07;25.40;;;;;;;;;;5138453;27;20208;-77
2022/01/01 01:05:13;;;;;;;46.30;25.37;;;;;;;;;;5138701;27;20751;-77
2022/01/01 01:07:41;;;;;;;62.20;28.07;;;;;;;;;;5138703;27;20228;-77
2022/01/01 01:10:12;;;;;;;48.47;26.20;;;;;;;;;;5138456;27;20212;-77
2022/01/01 01:12:43;;;;;;;41.93;23.50;;;;;;;;;;5138541;27;20615;-77
2022/01/01 01:15:17;;;;;;;39.53;22.13;;;;;;;;;;5125262;27;20340;-77
2022/01/01 01:17:47;;;;;;;39.23;22.33;;;;;;;;;;5138356;27;20220;-77
2022/01/01 01:20:15;;;;;;;39.27;21.77;;;;;;;;;;5138486;28;20573;-77
2022/01/01 01:22:46;;;;;;;41.87;22.33;;;;;;;;;;5138519;28;20551;-77
2022/01/01 01:25:14;;;;;;;42.40;22.00;;;;;;;;;;5140398;27;20220;-77
2022/01/01 01:27:42;;;;;;;42.50;23.43;;;;;;;;;;5142393;27;20690;-77
2022/01/01 01:30:12;;;;;;;45.77;22.10;;;;;;;;;;5142829;27;20211;-77
2022/01/01 01:32:41;;;;;;;41.70;22.70;;;;;;;;;;5142542;27;20207;-77
2022/01/01 01:35:11;;;;;;;36.30;21.33;;;;;;;;;;5142463;27;20203;-77
2022/01/01 01:37:39;;;;;;;36.37;21.30;;;;;;;;;;5142845;27;20224;-76
2022/01/01 01:40:08;;;;;;;37.17;21.23;;;;;;;;;;5142076;27;20238;-77
2022/01/01 01:42:39;;;;;;;37.27;21.60;;;;;;;;;;5142505;27;20200;-77
2022/01/01 01:45:12;;;;;;;41.03;22.33;;;;;;;;;;5142336;27;20200;-77
2022/01/01 01:47:40;;;;;;;39.80;21.23;;;;;;;;;;5142009;27;20285;-77
2022/01/01 01:50:09;;;;;;;38.87;22.43;;;;;;;;;;5142329;27;20210;-76
2022/01/01 01:52:40;;;;;;;37.77;22.60;;;;;;;;;;5142265;27;20686;-77
2022/01/01 01:55:09;;;;;;;44.53;23.37;;;;;;;;;;5143233;27;20589;-77
2022/01/01 01:57:39;;;;;;;39.20;23.07;;;;;;;;;;5144216;27;20226;-77
2022/01/01 02:00:14;;;;;;;43.23;24.63;;;;;;;;;;5142027;27;20651;-77
2022/01/01 02:02:42;;;;;;;44.27;23.17;;;;;;;;;;5141778;27;20558;-76
2022/01/01 02:05:10;;;;;;;53.30;24.80;;;;;;;;;;5141947;27;20214;-77
2022/01/01 02:07:40;;;;;;;38.83;22.33;;;;;;;;;;5142082;27;20224;-77
2022/01/01 02:10:09;;;;;;;40.27;22.40;;;;;;;;;;5141619;27;20215;-76
2022/01/01 02:12:38;;;;;;;38.47;20.83;;;;;;;;;;5142195;27;20207;-77
2022/01/01 02:15:15;;;;;;;41.77;20.23;;;;;;;;;;5141755;27;20209;-76
2022/01/01 02:17:43;;;;;;;32.27;19.63;;;;;;;;;;5141532;27;20299;-77
2022/01/01 02:20:14;;;;;;;40.00;19.93;;;;;;;;;;5141632;27;20204;-76
2022/01/01 02:22:46;;;;;;;32.97;19.83;;;;;;;;;;5141596;27;20203;-77
2022/01/01 02:25:15;;;;;;;31.23;18.83;;;;;;;;;;5141684;27;20212;-77
2022/01/01 02:27:43;;;;;;;29.20;17.63;;;;;;;;;;5141655;27;20232;-77
2022/01/01 02:30:12;;;;;;;31.17;18.23;;;;;;;;;;5141521;27;20662;-76
2022/01/01 02:32:40;;;;;;;31.37;17.40;;;;;;;;;;5141483;27;20208;-77
2022/01/01 02:35:10;;;;;;;32.47;16.73;;;;;;;;;;5141629;27;20204;-77
2022/01/01 02:37:40;;;;;;;34.97;18.33;;;;;;;;;;5141369;27;20220;-77
2022/01/01 02:40:09;;;;;;;36.50;16.27;;;;;;;;;;5141466;27;20211;-77
2022/01/01 02:42:38;;;;;;;39.33;17.33;;;;;;;;;;5141543;27;20200;-77
2022/01/01 02:45:09;;;;;;;31.27;16.27;;;;;;;;;;5141215;27;20208;-77
2022/01/01 02:47:37;;;;;;;31.33;16.57;;;;;;;;;;5140578;27;20232;-76
2022/01/01 02:50:06;;;;;;;35.07;18.77;;;;;;;;;;5141171;27;20192;-77
2022/01/01 02:52:34;;;;;;;33.33;17.77;;;;;;;;;;5141243;27;20577;-77
2022/01/01 02:55:04;;;;;;;32.20;17.13;;;;;;;;;;5141063;27;20667;-76
2022/01/01 02:57:32;;;;;;;32.60;16.63;;;;;;;;;;5143872;27;20640;-77
2022/01/01 02:59:59;;;;;;;30.33;16.90;;;;;;;;;;5141164;27;20212;-76
2022/01/01 03:02:27;;;;;;;33.10;17.33;;;;;;;;;;5140923;27;20204;-77
2022/01/01 03:04:56;;;;;;;27.00;16.03;;;;;;;;;;5140828;27;20204;-76
2022/01/01 03:07:24;;;;;;;29.83;16.40;;;;;;;;;;5140896;27;20231;-76
2022/01/01 03:09:53;;;;;;;25.47;16.40;;;;;;;;;;5140808;27;20208;-76
2022/01/01 03:12:22;;;;;;;29.27;16.37;;;;;;;;;;5141007;27;20208;-77
2022/01/01 03:14:50;;;;;;;29.47;16.17;;;;;;;;;;5140594;27;20204;-77
2022/01/01 03:17:18;;;;;;;32.83;16.80;;;;;;;;;;5140820;27;20230;-77
2022/01/01 03:19:46;;;;;;;39.00;18.87;;;;;;;;;;5140912;27;20200;-77
2022/01/01 03:22:14;;;;;;;28.73;16.43;;;;;;;;;;5140921;27;20216;-77
2022/01/01 03:24:42;;;;;;;29.70;16.37;;;;;;;;;;5140544;27;20204;-77
2022/01/01 03:27:10;;;;;;;28.13;17.37;;;;;;;;;;5141236;27;20232;-77
2022/01/01 03:29:39;;;;;;;38.17;17.77;;;;;;;;;;5140594;27;20224;-77
2022/01/01 03:32:08;;;;;;;26.57;17.13;;;;;;;;;;5140688;27;20201;-77
2022/01/01 03:34:36;;;;;;;28.97;17.43;;;;;;;;;;5140078;27;20212;-77
2022/01/01 03:37:04;;;;;;;28.90;17.03;;;;;;;;;;5140142;27;20224;-77
2022/01/01 03:39:32;;;;;;;33.90;17.77;;;;;;;;;;5140045;27;20197;-77
2022/01/01 03:42:00;;;;;;;28.37;17.40;;;;;;;;;;5140096;27;20569;-77
2022/01/01 03:44:28;;;;;;;34.93;18.00;;;;;;;;;;5140100;27;20655;-77
2022/01/01 03:47:08;;;;;;;30.63;17.63;;;;;;;;;;5139303;27;20224;-77
2022/01/01 03:49:36;;;;;;;32.60;17.23;;;;;;;;;;5139661;27;20625;-77
2022/01/01 03:52:04;;;;;;;32.43;18.93;;;;;;;;;;5139918;27;20212;-77
2022/01/01 03:54:32;;;;;;;34.00;18.13;;;;;;;;;;5139870;27;20214;-77
2022/01/01 03:57:00;;;;;;;31.40;17.90;;;;;;;;;;5144044;27;20220;-77
2022/01/01 03:59:28;;;;;;;35.37;20.50;;;;;;;;;;5140072;27;20203;-77
2022/01/01 04:01:56;;;;;;;45.00;23.60;;;;;;;;;;5140180;27;20204;-77
2022/01/01 04:04:26;;;;;;;50.70;24.17;;;;;;;;;;5140141;27;20208;-77
2022/01/01 04:06:55;;;;;;;53.33;24.03;;;;;;;;;;5140098;27;20224;-77
2022/01/01 04:09:23;;;;;;;50.07;24.77;;;;;;;;;;5139504;27;20238;-77
2022/01/01 04:11:52;;;;;;;40.07;24.63;;;;;;;;;;5139415;27;20586;-77
2022/01/01 04:14:20;;;;;;;38.53;23.03;;;;;;;;;;5139983;27;20446;-77
2022/01/01 04:16:50;;;;;;;42.03;21.67;;;;;;;;;;5139319;27;20695;-77
2022/01/01 04:19:18;;;;;;;45.57;22.23;;;;;;;;;;5139652;27;20204;-77
2022/01/01 04:21:47;;;;;;;30.63;20.60;;;;;;;;;;5139480;27;20235;-77
2022/01/01 04:24:15;;;;;;;44.80;21.00;;;;;;;;;;5139144;27;20217;-77
2022/01/01 04:26:43;;;;;;;34.90;20.37;;;;;;;;;;5139354;27;20220;-77
2022/01/01 04:29:11;;;;;;;35.93;20.33;;;;;;;;;;5139072;27;20224;-77
2022/01/01 04:31:41;;;;;;;36.90;19.03;;;;;;;;;;5139176;27;20235;-77
2022/01/01 04:34:09;;;;;;;40.17;20.77;;;;;;;;;;5139122;27;20259;-77
2022/01/01 04:36:47;;;;;;;40.80;19.73;;;;;;;;;;5139405;27;20228;-76
2022/01/01 04:39:17;;;;;;;40.27;20.13;;;;;;;;;;5138974;27;20212;-77
2022/01/01 04:41:45;;;;;;;55.43;21.73;;;;;;;;;;5135891;27;20275;-77
2022/01/01 04:44:13;;;;;;;34.50;20.00;;;;;;;;;;5147581;27;20196;-78
2022/01/01 04:46:41;;;;;;;29.50;18.53;;;;;;;;;;5149715;27;20279;-77
2022/01/01 04:49:09;;;;;;;34.20;20.43;;;;;;;;;;5147353;27;20224;-77
2022/01/01 04:51:37;;;;;;;60.53;20.07;;;;;;;;;;5145596;27;20200;-77
2022/01/01 04:54:12;;;;;;;32.50;19.17;;;;;;;;;;5139431;27;20196;-77
2022/01/01 04:56:43;;;;;;;51.57;20.57;;;;;;;;;;5139182;27;20215;-77
2022/01/01 04:59:12;;;;;;;37.63;20.00;;;;;;;;;;5137992;27;20436;-77
2022/01/01 05:01:40;;;;;;;34.37;19.50;;;;;;;;;;5139217;27;20283;-77
2022/01/01 05:04:08;;;;;;;33.20;20.53;;;;;;;;;;5139510;27;20196;-77
2022/01/01 05:06:36;;;;;;;37.77;20.13;;;;;;;;;;5140042;27;20227;-77
2022/01/01 05:09:04;;;;;;;33.87;19.57;;;;;;;;;;5135159;27;20219;-77
2022/01/01 05:11:32;;;;;;;39.37;19.60;;;;;;;;;;5137359;27;20749;-77
2022/01/01 05:14:01;;;;;;;34.97;19.70;;;;;;;;;;5139302;27;20203;-77
2022/01/01 05:16:29;;;;;;;33.70;19.13;;;;;;;;;;5139201;27;20792;-77
2022/01/01 05:18:58;;;;;;;34.70;20.27;;;;;;;;;;5137426;27;20207;-78
2022/01/01 05:21:27;;;;;;;36.63;18.73;;;;;;;;;;5140116;27;20208;-77
2022/01/01 05:23:55;;;;;;;31.73;19.67;;;;;;;;;;5140136;27;20247;-77
2022/01/01 05:26:24;;;;;;;35.67;18.80;;;;;;;;;;5136726;28;20215;-77
2022/01/01 05:28:52;;;;;;;38.57;19.43;;;;;;;;;;5138714;27;20199;-77
2022/01/01 05:31:21;;;;;;;38.73;19.87;;;;;;;;;;5139320;27;20227;-78
2022/01/01 05:33:50;;;;;;;32.63;19.50;;;;;;;;;;5136810;28;20292;-77
2022/01/01 05:36:18;;;;;;;48.67;20.00;;;;;;;;;;5134389;28;20226;-77
2022/01/01 05:38:47;;;;;;;49.83;19.83;;;;;;;;;;5138102;27;20197;-77
2022/01/01 05:41:15;;;;;;;33.17;19.53;;;;;;;;;;5137634;27;20202;-77
2022/01/01 05:43:43;;;;;;;44.97;18.97;;;;;;;;;;5138541;27;20222;-77
2022/01/01 05:46:11;;;;;;;32.93;19.27;;;;;;;;;;5139795;27;20220;-78
2022/01/01 05:48:40;;;;;;;34.43;19.00;;;;;;;;;;5135114;28;20260;-77
2022/01/01 05:51:08;;;;;;;34.93;18.67;;;;;;;;;;5138785;27;20216;-77
2022/01/01 05:53:36;;;;;;;40.77;19.40;;;;;;;;;;5135635;27;20197;-78
2022/01/01 05:56:04;;;;;;;42.63;18.77;;;;;;;;;;5138905;27;20216;-77
2022/01/01 05:58:32;;;;;;;48.43;18.90;;;;;;;;;;5139202;27;20196;-77
2022/01/01 06:01:00;;;;;;;34.43;18.03;;;;;;;;;;5140149;27;20188;-77
2022/01/01 06:03:28;;;;;;;41.63;19.17;;;;;;;;;;5136244;27;20204;-77
2022/01/01 06:05:58;;;;;;;39.67;18.87;;;;;;;;;;5138884;27;20223;-77
2022/01/01 06:08:35;;;;;;;30.03;17.83;;;;;;;;;;5138715;27;20204;-77
2022/01/01 06:11:03;;;;;;;33.40;18.23;;;;;;;;;;5138120;27;20251;-77
2022/01/01 06:13:31;;;;;;;29.30;16.50;;;;;;;;;;5141954;27;20200;-77
2022/01/01 06:15:59;;;;;;;27.50;16.10;;;;;;;;;;5138455;27;20581;-77
2022/01/01 06:18:27;;;;;;;28.43;15.60;;;;;;;;;;5142818;27;20235;-77
2022/01/01 06:20:56;;;;;;;32.20;15.83;;;;;;;;;;5143977;27;20283;-77
2022/01/01 06:23:25;;;;;;;32.23;16.37;;;;;;;;;;5144954;27;20219;-77
2022/01/01 06:25:54;;;;;;;25.50;15.90;;;;;;;;;;5139247;27;20216;-77
2022/01/01 06:28:22;;;;;;;35.70;16.30;;;;;;;;;;5142063;27;20200;-77
2022/01/01 06:30:50;;;;;;;30.47;17.27;;;;;;;;;;5142598;27;20223;-77
2022/01/01 06:33:19;;;;;;;29.00;16.73;;;;;;;;;;5141338;27;20207;-77
2022/01/01 06:35:48;;;;;;;34.90;17.63;;;;;;;;;;5143309;27;20204;-78
2022/01/01 06:38:17;;;;;;;32.60;16.23;;;;;;;;;;5151117;27;20670;-77
2022/01/01 06:40:46;;;;;;;28.17;16.13;;;;;;;;;;5157398;27;20196;-77
2022/01/01 06:43:16;;;;;;;30.23;16.27;;;;;;;;;;5141489;27;20200;-77
2022/01/01 06:45:44;;;;;;;30.07;17.40;;;;;;;;;;5141261;27;20208;-77
2022/01/01 06:48:12;;;;;;;29.60;17.03;;;;;;;;;;5140815;27;20597;-78
2022/01/01 06:50:40;;;;;;;33.03;16.00;;;;;;;;;;5140831;27;20733;-77
2022/01/01 06:53:09;;;;;;;28.07;16.37;;;;;;;;;;5140793;27;20235;-77
2022/01/01 06:55:37;;;;;;;27.47;16.93;;;;;;;;;;5144942;27;20281;-77
2022/01/01 06:58:07;;;;;;;28.13;16.03;;;;;;;;;;5141293;27;20647;-77
2022/01/01 07:00:35;;;;;;;37.37;16.87;;;;;;;;;;5140882;27;20226;-77
2022/01/01 07:03:03;;;;;;;32.80;16.63;;;;;;;;;;5140833;27;20250;-77
2022/01/01 07:05:31;;;;;;;31.07;16.13;;;;;;;;;;5140674;27;20254;-78
2022/01/01 07:07:59;;;;;;;36.63;15.40;;;;;;;;;;5141029;27;20204;-77
2022/01/01 07:10:27;;;;;;;28.83;15.67;;;;;;;;;;5140519;27;20729;-77
2022/01/01 07:12:55;;;;;;;28.17;14.53;;;;;;;;;;5140659;27;20294;-77
2022/01/01 07:15:25;;;;;;;29.07;16.13;;;;;;;;;;5140587;27;20674;-77
2022/01/01 07:17:53;;;;;;;29.40;14.73;;;;;;;;;;5140664;27;20224;-77
2022/01/01 07:20:21;;;;;;;28.90;16.40;;;;;;;;;;5140545;27;20204;-74
2022/01/01 07:22:49;;;;;;;28.17;15.57;;;;;;;;;;5139788;27;20211;-75
2022/01/01 07:25:16;;;;;;;29.40;14.87;;;;;;;;;;5140568;27;20200;-74
2022/01/01 07:27:44;;;;;;;32.90;17.27;;;;;;;;;;5140655;27;20224;-74
2022/01/01 07:30:13;;;;;;;34.30;17.33;;;;;;;;;;5140697;27;20216;-75
2022/01/01 07:32:48;;;;;;;25.93;14.63;;;;;;;;;;5140118;27;20291;-74
2022/01/01 07:35:17;;;;;;;30.90;15.83;;;;;;;;;;5140667;27;20212;-74
2022/01/01 07:37:45;;;;;;;31.23;15.23;;;;;;;;;;5140468;27;20220;-74
2022/01/01 07:40:14;;;;;;;27.83;16.00;;;;;;;;;;5139750;27;20685;-75
2022/01/01 07:42:42;;;;;;;30.73;16.30;;;;;;;;;;5139826;27;20646;-74
2022/01/01 07:45:11;;;;;;;29.50;15.27;;;;;;;;;;5140221;27;20285;-75
2022/01/01 07:47:39;;;;;;;33.83;16.53;;;;;;;;;;5139818;27;20240;-75
2022/01/01 07:50:09;;;;;;;32.63;16.37;;;;;;;;;;5139943;27;20218;-76
2022/01/01 07:52:37;;;;;;;32.20;17.00;;;;;;;;;;5139921;27;20693;-69
2022/01/01 07:55:05;;;;;;;30.13;17.53;;;;;;;;;;5140791;27;20204;-69
2022/01/01 07:57:33;;;;;;;27.67;16.57;;;;;;;;;;5142592;27;20226;-69
2022/01/01 08:00:01;;;;;;;31.30;15.43;;;;;;;;;;5139997;27;20208;-69
2022/01/01 08:02:29;;;;;;;27.10;16.30;;;;;;;;;;5139640;27;20212;-69
2022/01/01 08:04:57;;;;;;;25.33;15.17;;;;;;;;;;5139911;27;20236;-66
2022/01/01 08:07:27;;;;;;;27.70;14.50;;;;;;;;;;5139792;27;20219;-66
2022/01/01 08:10:14;;;;;;;33.67;18.60;;;;;;;;;;5138961;27;20207;-66
2022/01/01 08:12:43;;;;;;;63.23;28.40;;;;;;;;;;5139744;27;20211;-66
2022/01/01 08:15:11;;;;;;;48.20;22.33;;;;;;;;;;5139638;27;20204;-66
2022/01/01 08:17:39;;;;;;;41.93;18.37;;;;;;;;;;5139587;27;20224;-66
2022/01/01 08:20:07;;;;;;;41.63;19.33;;;;;;;;;;5139240;27;20659;-66
2022/01/01 08:22:36;;;;;;;34.57;17.67;;;;;;;;;;5139581;27;20200;-66
2022/01/01 08:25:05;;;;;;;35.67;17.00;;;;;;;;;;5139232;27;20200;-65
2022/01/01 08:27:33;;;;;;;37.10;18.03;;;;;;;;;;5139127;27;20258;-66
2022/01/01 08:30:01;;;;;;;43.33;18.27;;;;;;;;;;5139317;27;20448;-66
2022/01/01 08:32:29;;;;;;;39.37;20.10;;;;;;;;;;5139842;27;20532;-65
2022/01/01 08:34:57;;;;;;;40.37;20.53;;;;;;;;;;5159791;27;20433;-65
2022/01/01 08:37:24;;;;;;;33.27;16.57;;;;;;;;;;5159639;27;20469;-65
2022/01/01 08:39:54;;;;;;;32.20;15.37;;;;;;;;;;5159415;27;20445;-74
2022/01/01 08:42:23;;;;;;;38.53;17.63;;;;;;;;;;5142436;27;20430;-73
2022/01/01 08:44:51;;;;;;;33.53;16.43;;;;;;;;;;5138793;27;20442;-74
2022/01/01 08:47:24;;;;;;;32.87;17.37;;;;;;;;;;5138699;27;20548;-74
2022/01/01 08:49:54;;;;;;;33.90;16.50;;;;;;;;;;5139247;27;20453;-73
2022/01/01 08:52:22;;;;;;;33.03;16.30;;;;;;;;;;5138692;27;20481;-74
2022/01/01 08:54:50;;;;;;;36.53;16.53;;;;;;;;;;5138522;27;20445;-73
2022/01/01 08:57:20;;;;;;;25.13;14.53;;;;;;;;;;5143261;27;20457;-75
2022/01/01 08:59:48;;;;;;;26.40;13.83;;;;;;;;;;5138989;27;20438;-74
2022/01/01 09:02:16;;;;;;;30.83;15.70;;;;;;;;;;5138737;27;20452;-74
2022/01/01 09:04:44;;;;;;;30.20;15.43;;;;;;;;;;5138499;27;20526;-74
2022/01/01 09:07:13;;;;;;;23.43;13.57;;;;;;;;;;5138530;27;20235;-74
2022/01/01 09:09:41;;;;;;;26.67;15.33;;;;;;;;;;5136897;27;20452;-72
2022/01/01 09:12:09;;;;;;;29.93;15.40;;;;;;;;;;5131979;27;20223;-74
2022/01/01 09:14:39;;;;;;;25.90;13.77;;;;;;;;;;5137668;27;20570;-75
2022/01/01 09:17:07;;;;;;;27.97;14.67;;;;;;;;;;5137593;27;20222;-74
2022/01/01 09:19:35;;;;;;;26.17;14.27;;;;;;;;;;5140520;27;20200;-75
2022/01/01 09:22:03;;;;;;;29.33;14.17;;;;;;;;;;5138700;27;20192;-73
2022/01/01 09:24:31;;;;;;;24.03;14.37;;;;;;;;;;5155172;27;20206;-74
2022/01/01 09:26:59;;;;;;;30.30;14.83;;;;;;;;;;5158878;27;20220;-75
2022/01/01 09:29:27;;;;;;;25.53;15.07;;;;;;;;;;5158980;27;20688;-71
2022/01/01 09:31:57;;;;;;;28.93;13.97;;;;;;;;;;5141807;27;20695;-74
2022/01/01 09:34:25;;;;;;;28.63;16.17;;;;;;;;;;5142646;27;20207;-74
2022/01/01 09:36:54;;;;;;;25.87;15.97;;;;;;;;;;5143575;27;20216;-74
2022/01/01 09:39:24;;;;;;;28.40;16.47;;;;;;;;;;5135735;28;20287;-75
2022/01/01 09:41:52;;;;;;;31.50;17.17;;;;;;;;;;5143320;27;20198;-73
2022/01/01 09:44:21;;;;;;;30.07;17.00;;;;;;;;;;5140141;27;20202;-73
2022/01/01 09:46:51;;;;;;;33.47;17.07;;;;;;;;;;5150427;27;20226;-72
2022/01/01 09:49:20;;;;;;;31.83;16.83;;;;;;;;;;5145993;27;20196;-72
2022/01/01 09:51:48;;;;;;;36.10;18.17;;;;;;;;;;5150090;27;20483;-72
2022/01/01 09:54:16;;;;;;;32.73;18.90;;;;;;;;;;5146732;27;20445;-72
2022/01/01 09:56:44;;;;;;;39.63;19.60;;;;;;;;;;5151921;27;20452;-72
2022/01/01 09:59:13;;;;;;;40.30;20.53;;;;;;;;;;5144224;27;20461;-74
2022/01/01 10:01:43;;;;;;;34.93;19.50;;;;;;;;;;5146974;27;20245;-73
2022/01/01 10:04:15;;;;;;;33.73;18.03;;;;;;;;;;5147074;27;20456;-73
2022/01/01 10:07:00;;;;;;;32.17;18.57;;;;;;;;;;5149844;27;20457;-73
2022/01/01 10:09:31;;;;;;;36.70;18.83;;;;;;;;;;5149887;27;20425;-72
2022/01/01 10:11:59;;;;;;;35.87;18.30;;;;;;;;;;5150397;27;20474;-72
2022/01/01 10:14:34;;;;;;;32.20;18.03;;;;;;;;;;5149931;27;20443;-72
2022/01/01 10:17:03;;;;;;;31.47;17.43;;;;;;;;;;5147879;27;20819;-72
2022/01/01 10:19:31;;;;;;;31.87;17.23;;;;;;;;;;5147010;27;20544;-72
2022/01/01 10:22:03;;;;;;;32.60;18.53;;;;;;;;;;5141984;27;20433;-73
2022/01/01 10:27:42;;;;;;;30.57;17.43;;;;;;;;;;5138503;27;20440;-73
2022/01/01 10:30:05;;;;;;;28.27;16.33;;;;;;;;;;5147221;27;20633;-73
2022/01/01 10:32:33;;;;;;;27.20;16.10;;;;;;;;;;5149278;27;20215;-73
2022/01/01 10:35:05;;;;;;;27.83;16.80;;;;;;;;;;5146938;27;20563;-72
2022/01/01 10:37:35;;;;;;;29.77;17.93;;;;;;;;;;5141598;27;20222;-73
2022/01/01 10:40:09;;;;;;;31.33;18.90;;;;;;;;;;5149137;27;20441;-73
2022/01/01 10:42:37;;;;;;;30.10;16.97;;;;;;;;;;5146956;27;20441;-72
2022/01/01 10:45:05;;;;;;;27.13;17.90;;;;;;;;;;5140761;27;20444;-73
2022/01/01 10:47:35;;;;;;;30.20;18.13;;;;;;;;;;5148208;27;20500;-72
2022/01/01 10:50:15;;;;;;;30.03;17.10;;;;;;;;;;5142053;27;20931;-72
2022/01/01 10:52:45;;;;;;;30.30;17.93;;;;;;;;;;5146559;27;20469;-72
2022/01/01 10:55:14;;;;;;;31.70;18.77;;;;;;;;;;5148418;27;20207;-72
2022/01/01 10:57:43;;;;;;;31.97;18.33;;;;;;;;;;5147287;27;20315;-72
2022/01/01 11:00:15;;;;;;;35.07;19.43;;;;;;;;;;5147278;27;20224;-72
2022/01/01 11:02:44;;;;;;;32.37;20.40;;;;;;;;;;5147350;27;20948;-72
2022/01/01 11:05:12;;;;;;;34.63;20.40;;;;;;;;;;5147092;27;20196;-72
2022/01/01 11:07:50;;;;;;;35.80;18.53;;;;;;;;;;5148859;27;20964;-72
2022/01/01 11:10:20;;;;;;;35.63;20.07;;;;;;;;;;5148399;27;20441;-72
2022/01/01 11:12:48;;;;;;;31.83;20.73;;;;;;;;;;5149606;27;20580;-74
2022/01/01 11:15:17;;;;;;;30.23;20.10;;;;;;;;;;5146350;27;20437;-74
2022/01/01 11:17:46;;;;;;;29.77;18.43;;;;;;;;;;5145018;27;20459;-74
2022/01/01 11:20:14;;;;;;;35.97;20.67;;;;;;;;;;5146832;27;20440;-73
2022/01/01 11:22:47;;;;;;;34.53;20.27;;;;;;;;;;5147488;27;20519;-73
2022/01/01 11:25:15;;;;;;;31.97;18.53;;;;;;;;;;5145852;27;20479;-71
2022/01/01 11:27:45;;;;;;;33.00;20.60;;;;;;;;;;5141307;27;20453;-72
2022/01/01 11:30:14;;;;;;;34.60;20.87;;;;;;;;;;5147322;27;20199;-73
2022/01/01 11:32:46;;;;;;;36.10;20.40;;;;;;;;;;5150582;27;20244;-72
2022/01/01 11:35:18;;;;;;;33.17;20.13;;;;;;;;;;5132279;27;20199;-72
2022/01/01 11:37:47;;;;;;;32.57;20.97;;;;;;;;;;5122759;27;20213;-73
2022/01/01 11:40:18;;;;;;;33.83;20.80;;;;;;;;;;5130036;27;20239;-73
2022/01/01 11:42:48;;;;;;;32.23;20.20;;;;;;;;;;5137009;27;20196;-72
2022/01/01 11:45:31;;;;;;;33.00;21.00;;;;;;;;;;5139466;27;20659;-75
2022/01/01 11:48:14;;;;;;;37.10;23.30;;;;;;;;;;5138161;27;20258;-74
2022/01/01 11:50:42;;;;;;;31.07;20.60;;;;;;;;;;5141494;27;20659;-73
2022/01/01 11:53:25;;;;;;;33.43;21.10;;;;;;;;;;5137050;27;20212;-72
2022/01/01 11:56:04;;;;;;;33.13;21.37;;;;;;;;;;5137402;27;20212;-73
2022/01/01 11:58:47;;;;;;;35.23;21.10;;;;;;;;;;5137257;27;20260;-74
2022/01/01 12:01:18;;;;;;;33.27;21.07;;;;;;;;;;5145846;27;20196;-72
2022/01/01 12:03:49;;;;;;;36.53;21.37;;;;;;;;;;5138890;27;20208;-71
2022/01/01 12:06:17;;;;;;;39.57;22.60;;;;;;;;;;5128058;27;20231;-71
2022/01/01 12:08:48;;;;;;;36.53;22.27;;;;;;;;;;5128959;27;20202;-71
2022/01/01 12:11:28;;;;;;;32.30;21.33;;;;;;;;;;5147106;27;20692;-71
2022/01/01 12:13:56;;;;;;;31.70;19.97;;;;;;;;;;5143676;27;20220;-73
2022/01/01 12:16:26;;;;;;;33.60;20.13;;;;;;;;;;5144675;27;20222;-73
2022/01/01 12:19:01;;;;;;;32.80;20.67;;;;;;;;;;5146707;27;20260;-72
2022/01/01 12:21:31;;;;;;;33.50;21.70;;;;;;;;;;5142196;27;20195;-74
2022/01/01 12:23:59;;;;;;;27.60;19.43;;;;;;;;;;5138834;27;20616;-75
2022/01/01 12:26:32;;;;;;;32.97;20.67;;;;;;;;;;5138655;27;20224;-74
2022/01/01 12:29:03;;;;;;;31.13;19.70;;;;;;;;;;5139217;27;20681;-74
2022/01/01 12:31:33;;;;;;;35.40;19.30;;;;;;;;;;5140578;27;20222;-69
2022/01/01 12:34:09;;;;;;;30.33;19.40;;;;;;;;;;5130088;27;20217;-69
2022/01/01 12:36:40;;;;;;;31.67;19.13;;;;;;;;;;5128565;27;20216;-69
2022/01/01 12:39:09;;;;;;;33.50;20.40;;;;;;;;;;5128101;27;20205;-69
2022/01/01 12:41:38;;;;;;;33.10;20.47;;;;;;;;;;5141143;27;20203;-69
2022/01/01 12:44:07;;;;;;;32.00;20.30;;;;;;;;;;5147650;27;20203;-68
2022/01/01 12:46:38;;;;;;;33.20;20.60;;;;;;;;;;5138591;27;20224;-69
2022/01/01 12:49:09;;;;;;;32.67;20.97;;;;;;;;;;5138122;27;20239;-68
2022/01/01 12:51:38;;;;;;;37.83;20.97;;;;;;;;;;5140972;27;20658;-68
2022/01/01 12:54:06;;;;;;;35.10;21.27;;;;;;;;;;5140554;27;20560;-69
2022/01/01 12:56:35;;;;;;;32.20;21.07;;;;;;;;;;5144293;27;20222;-69
2022/01/01 12:59:07;;;;;;;34.77;21.80;;;;;;;;;;5143946;27;20206;-69
2022/01/01 13:01:35;;;;;;;35.20;23.50;;;;;;;;;;5146449;27;20203;-69
2022/01/01 13:04:08;;;;;;;34.83;22.47;;;;;;;;;;5142805;27;20230;-69
2022/01/01 13:06:37;;;;;;;39.40;23.97;;;;;;;;;;5146275;27;20223;-69
2022/01/01 13:09:11;;;;;;;42.77;25.40;;;;;;;;;;5139774;27;20200;-69
2022/01/01 13:11:40;;;;;;;43.77;25.80;;;;;;;;;;5142004;27;20279;-69
2022/01/01 13:14:08;;;;;;;43.70;24.77;;;;;;;;;;5147028;27;20226;-68
2022/01/01 13:16:36;;;;;;;41.60;24.87;;;;;;;;;;5144213;27;20695;-68
2022/01/01 13:19:04;;;;;;;43.47;23.67;;;;;;;;;;5147120;27;20200;-68
2022/01/01 13:21:34;;;;;;;39.10;24.13;;;;;;;;;;5145785;27;20204;-68
2022/01/01 13:24:03;;;;;;;40.37;24.57;;;;;;;;;;5143498;27;20196;-68
2022/01/01 13:26:32;;;;;;;40.37;24.73;;;;;;;;;;5145334;27;20247;-68
2022/01/01 13:29:01;;;;;;;38.33;25.27;;;;;;;;;;5143095;27;20196;-68
2022/01/01 13:31:30;;;;;;;33.20;21.90;;;;;;;;;;5146405;27;20210;-68
2022/01/01 13:33:59;;;;;;;42.43;26.00;;;;;;;;;;5145942;27;20220;-69
2022/01/01 13:36:31;;;;;;;37.87;23.87;;;;;;;;;;5134209;27;20224;-74
2022/01/01 13:39:01;;;;;;;39.40;24.93;;;;;;;;;;5129779;28;20196;-73
2022/01/01 13:41:33;;;;;;;38.07;24.87;;;;;;;;;;5124166;28;20197;-73
2022/01/01 13:44:16;;;;;;;41.93;25.57;;;;;;;;;;5134760;28;20208;-73
2022/01/01 13:46:44;;;;;;;37.60;23.93;;;;;;;;;;5137525;28;20332;-73
2022/01/01 13:49:12;;;;;;;41.73;24.43;;;;;;;;;;5138031;28;20239;-73
2022/01/01 13:51:41;;;;;;;39.33;24.13;;;;;;;;;;5137621;27;20200;-73
2022/01/01 13:54:11;;;;;;;37.20;23.57;;;;;;;;;;5129126;28;20216;-73
2022/01/01 13:56:39;;;;;;;38.50;22.27;;;;;;;;;;5130066;28;20589;-72
2022/01/01 13:59:07;;;;;;;35.70;22.47;;;;;;;;;;5147398;27;20214;-75
2022/01/01 14:01:36;;;;;;;37.47;23.10;;;;;;;;;;5144153;27;20667;-76
2022/01/01 14:04:05;;;;;;;37.67;22.27;;;;;;;;;;5146514;27;20539;-75
2022/01/01 14:06:33;;;;;;;37.33;20.93;;;;;;;;;;5145274;27;20616;-75
2022/01/01 14:09:02;;;;;;;34.90;21.53;;;;;;;;;;5137782;28;20284;-75
2022/01/01 14:11:37;;;;;;;33.43;20.57;;;;;;;;;;5145766;27;20217;-74
2022/01/01 14:14:06;;;;;;;30.70;19.57;;;;;;;;;;5145872;27;20307;-74
2022/01/01 14:16:42;;;;;;;38.47;21.83;;;;;;;;;;5144509;27;20220;-74
2022/01/01 14:19:15;;;;;;;31.87;20.27;;;;;;;;;;5143565;27;20204;-73
2022/01/01 14:21:43;;;;;;;30.03;19.33;;;;;;;;;;5141232;27;20200;-74
2022/01/01 14:24:14;;;;;;;29.50;18.03;;;;;;;;;;5137228;28;20240;-73
2022/01/01 14:26:45;;;;;;;30.63;20.40;;;;;;;;;;5137648;28;20267;-73
2022/01/01 14:29:14;;;;;;;27.43;18.20;;;;;;;;;;5137357;28;20200;-72
2022/01/01 14:31:42;;;;;;;26.80;18.07;;;;;;;;;;5138592;27;20204;-74